Killian, South Carolina
Current Conditions -  °F | °C
As of 7:13 AM on Sunday 23 Nov 2014 (Local Time) from KCUB Reporting Station
Moderate Rain Moderate Rain  
Wind Chill: 11°   Ceiling: 8500
Heat Index: 11°   Visibility: 3mi
Dew Point:   Wind: 0mph
Humidity: 92%   Direction: NA
Pressure: 30.19"   Gusts: NA
Location:  34.1179°N, 81.0612°W
Report Text: KCUB 231213Z AUTO 00000KT 3SM RA BR BKN085 OVC110 11/09 A3019 RMK AO2 P0005 T01060094
Loading
Personal Weather Stations






























Interactive Weather Map New forecast layout! Learn more

10-Day Weather Forecast

Advertisements
Track Severe Weather on mobile